createdAt,value
2022-08-25T00:00:54.363Z,101521.59
2022-08-25T00:06:16.942Z,101510.41
2022-08-25T00:11:40.047Z,101508.72
2022-08-25T00:17:02.096Z,101498.66
2022-08-25T00:22:23.893Z,101499.47
2022-08-25T00:27:45.812Z,101503.13
2022-08-25T00:33:08.426Z,101495.03
2022-08-25T00:38:30.327Z,101496.97
2022-08-25T00:43:58.077Z,101495.84
2022-08-25T00:49:29.069Z,101489.69
2022-08-25T00:55:08.306Z,101490.53
2022-08-25T01:00:37.320Z,101489.69
2022-08-25T01:06:00.473Z,101488.00
2022-08-25T01:11:22.388Z,101490.78
2022-08-25T01:16:44.416Z,101485.19
2022-08-25T01:22:06.385Z,101488.00
2022-08-25T01:27:28.136Z,101491.91
2022-08-25T01:32:49.843Z,101493.59
2022-08-25T01:38:13.082Z,101494.69
2022-08-25T01:43:38.935Z,101499.19
2022-08-25T01:49:10.874Z,101503.09
2022-08-25T01:54:32.759Z,101489.09
2022-08-25T01:59:54.454Z,101488.28
2022-08-25T02:05:18.482Z,101489.09
2022-08-25T02:10:45.649Z,101476.22
2022-08-25T02:16:09.482Z,101481.81
2022-08-25T02:21:32.720Z,101471.78
2022-08-25T02:26:54.529Z,101477.38
2022-08-25T02:32:16.219Z,101480.16
2022-08-25T02:37:37.966Z,101478.50
2022-08-25T02:42:59.858Z,101467.31
2022-08-25T02:48:21.925Z,101472.91
2022-08-25T02:53:46.150Z,101470.09
2022-08-25T02:59:07.868Z,101475.94
2022-08-25T03:04:29.712Z,101468.41
2022-08-25T03:09:51.704Z,101475.94
2022-08-25T03:15:18.737Z,101463.94
2022-08-25T03:20:40.847Z,101463.94
2022-08-25T03:26:21.486Z,101465.88
2022-08-25T03:31:45.027Z,101451.88
2022-08-25T03:37:08.723Z,101445.47
2022-08-25T03:42:30.454Z,101439.00
2022-08-25T03:47:53.289Z,101421.41
2022-08-25T03:53:15.108Z,101432.59
2022-08-25T03:58:37.284Z,101436.22
2022-08-25T04:03:59.002Z,101431.75
2022-08-25T04:09:21.489Z,101420.56
2022-08-25T04:14:43.248Z,101425.31
2022-08-25T04:20:06.626Z,101416.94
2022-08-25T04:25:28.726Z,101407.72
2022-08-25T04:30:52.173Z,101406.03
2022-08-25T04:36:15.119Z,101402.38
2022-08-25T04:41:36.926Z,101413.56
2022-08-25T04:46:59.611Z,101413.56
2022-08-25T04:52:21.330Z,101411.03
2022-08-25T04:57:43.531Z,101413.84
2022-08-25T05:03:06.154Z,101413.84
2022-08-25T05:08:27.944Z,101414.09
2022-08-25T05:13:51.883Z,101418.59
2022-08-25T05:19:13.677Z,101428.94
2022-08-25T05:24:35.487Z,101437.63
2022-08-25T05:29:57.185Z,101437.63
2022-08-25T05:35:20.366Z,101440.41
2022-08-25T05:40:42.061Z,101443.22
2022-08-25T05:46:04.102Z,101447.66
2022-08-25T05:51:26.862Z,101446.84
2022-08-25T05:56:48.669Z,101446.00
2022-08-25T06:02:29.055Z,101448.78
2022-08-25T06:07:52.390Z,101452.41
2022-08-25T06:13:14.542Z,101447.66
2022-08-25T06:18:36.251Z,101439.25
2022-08-25T06:23:58.072Z,101439.50
2022-08-25T06:29:21.052Z,101436.66
2022-08-25T06:34:42.747Z,101438.03
2022-08-25T06:40:07.441Z,101443.06
2022-08-25T06:45:29.154Z,101449.19
2022-08-25T06:50:50.975Z,101453.41
2022-08-25T06:56:13.535Z,101436.91
2022-08-25T07:01:35.611Z,101443.06
2022-08-25T07:06:57.406Z,101432.44
2022-08-25T07:12:19.210Z,101427.44
2022-08-25T07:17:40.942Z,101416.53
2022-08-25T07:23:05.875Z,101419.94
2022-08-25T07:28:27.681Z,101428.03
2022-08-25T07:34:07.812Z,101425.81
2022-08-25T07:39:32.423Z,101439.53
2022-08-25T07:44:54.137Z,101436.47
2022-08-25T07:50:15.946Z,101441.19
2022-08-25T07:55:38.441Z,101437.28
2022-08-25T08:01:00.152Z,101435.34
2022-08-25T08:06:24.148Z,101447.13
2022-08-25T08:11:53.833Z,101438.44
2022-08-25T08:17:16.396Z,101445.72
2022-08-25T08:22:41.117Z,101443.50
2022-08-25T08:28:03.180Z,101445.19
2022-08-25T08:33:25.989Z,101450.19
2022-08-25T08:38:49.604Z,101447.97
2022-08-25T08:44:42.537Z,101446.59
2022-08-25T08:50:33.774Z,101448.25
2022-08-25T08:56:19.630Z,101446.03
2022-08-25T09:01:57.622Z,101434.31
2022-08-25T09:07:24.751Z,101439.94
2022-08-25T09:12:57.021Z,101426.22
2022-08-25T09:18:29.535Z,101425.41
2022-08-25T09:24:36.517Z,101415.34
2022-08-25T09:30:14.149Z,101419.00
2022-08-25T09:35:40.855Z,101421.22
2022-08-25T09:41:03.180Z,101407.53
2022-08-25T09:46:28.850Z,101405.28
2022-08-25T09:51:52.671Z,101399.97
2022-08-25T09:57:34.771Z,101401.69
2022-08-25T10:03:06.016Z,101396.94
2022-08-25T10:08:45.146Z,101395.25
2022-08-25T10:14:18.798Z,101371.72
2022-08-25T10:19:40.558Z,101367.81
2022-08-25T10:25:04.921Z,101364.47
2022-08-25T10:30:42.964Z,101363.88
2022-08-25T10:36:21.356Z,101362.78
2022-08-25T10:41:57.977Z,101361.41
2022-08-25T10:47:57.759Z,101354.38
2022-08-25T10:53:37.145Z,101341.22
2022-08-25T10:59:19.921Z,101349.34
2022-08-25T11:04:58.905Z,101347.38
2022-08-25T11:10:28.027Z,101335.91
2022-08-25T11:16:16.597Z,101322.75
2022-08-25T11:21:47.815Z,101319.66
2022-08-25T11:27:17.516Z,101315.47
2022-08-25T11:32:41.961Z,101305.66
2022-08-25T11:38:25.188Z,101312.38
2022-08-25T11:44:23.818Z,101304.81
2022-08-25T11:50:08.604Z,101298.91
2022-08-25T11:55:51.410Z,101288.28
2022-08-25T12:01:40.882Z,101281.00
2022-08-25T12:07:11.412Z,101269.25
2022-08-25T12:12:41.941Z,101267.81
2022-08-25T12:18:18.757Z,101266.41
2022-08-25T12:24:11.082Z,101258.56
2022-08-25T12:29:57.495Z,101266.97
2022-08-25T12:35:19.657Z,101255.75
2022-08-25T12:40:45.333Z,101259.66
2022-08-25T12:46:25.948Z,101257.16
2022-08-25T12:51:53.948Z,101262.47
2022-08-25T12:57:29.529Z,101254.31
2022-08-25T13:03:14.168Z,101249.56
2022-08-25T13:09:13.360Z,101250.09
2022-08-25T13:14:40.632Z,101237.78
2022-08-25T13:20:26.398Z,101236.94
2022-08-25T13:25:52.050Z,101232.72
2022-08-25T13:31:22.329Z,101236.09
2022-08-25T13:37:04.892Z,101228.50
2022-08-25T13:42:28.992Z,101220.09
2022-08-25T13:47:55.848Z,101226.00
2022-08-25T13:53:26.145Z,101214.78
2022-08-25T13:58:47.885Z,101205.25
2022-08-25T14:04:32.928Z,101214.22
2022-08-25T14:10:01.631Z,101206.38
2022-08-25T14:15:23.529Z,101197.66
2022-08-25T14:20:54.288Z,101194.84
2022-08-25T14:26:16.092Z,101186.13
2022-08-25T14:31:43.452Z,101181.03
2022-08-25T14:37:18.015Z,101193.34
2022-08-25T14:42:40.242Z,101183.81
2022-08-25T14:48:10.625Z,101176.22
2022-08-25T14:53:33.662Z,101166.69
2022-08-25T14:58:55.783Z,101174.28
2022-08-25T15:04:20.594Z,101172.03
2022-08-25T15:09:42.338Z,101171.72
2022-08-25T15:15:04.531Z,101177.03
2022-08-25T15:20:26.702Z,101164.19
2022-08-25T15:25:52.642Z,101173.72
2022-08-25T15:31:15.781Z,101160.81
2022-08-25T15:36:38.027Z,101160.81
2022-08-25T15:42:00.308Z,101169.22
2022-08-25T15:47:24.306Z,101163.63
2022-08-25T15:52:47.548Z,101166.69
2022-08-25T15:58:10.292Z,101157.47
2022-08-25T16:03:32.622Z,101160.56
2022-08-25T16:08:54.576Z,101168.69
2022-08-25T16:14:16.373Z,101179.91
2022-08-25T16:19:38.382Z,101182.13
2022-08-25T16:25:02.670Z,101192.72
2022-08-25T16:30:24.507Z,101193.28
2022-08-25T16:35:47.580Z,101194.38
2022-08-25T16:41:21.453Z,101188.78
2022-08-25T16:46:44.321Z,101192.13
2022-08-25T16:52:28.384Z,101191.00
2022-08-25T16:57:55.572Z,101202.75
2022-08-25T17:03:17.357Z,101199.44
2022-08-25T17:08:39.945Z,101194.69
2022-08-25T17:14:06.809Z,101198.88
2022-08-25T17:19:33.386Z,101206.75
2022-08-25T17:25:00.742Z,101199.47
2022-08-25T17:30:23.084Z,101211.28
2022-08-25T17:35:49.829Z,101210.47
2022-08-25T17:41:12.439Z,101211.88
2022-08-25T17:46:34.315Z,101220.56
2022-08-25T17:51:56.102Z,101225.34
2022-08-25T17:57:17.886Z,101231.22
2022-08-25T18:02:39.642Z,101229.28
2022-08-25T18:08:01.738Z,101229.56
2022-08-25T18:13:26.886Z,101240.75
2022-08-25T18:18:51.382Z,101243.88
2022-08-25T18:24:14.522Z,101256.50
2022-08-25T18:29:36.456Z,101268.84
2022-08-25T18:34:58.950Z,101262.66
2022-08-25T18:40:24.009Z,101281.72
2022-08-25T18:45:50.441Z,101295.19
2022-08-25T18:51:12.270Z,101297.44
2022-08-25T18:56:35.253Z,101294.91
2022-08-25T19:01:57.637Z,101304.44
2022-08-25T19:07:19.765Z,101313.97
2022-08-25T19:12:41.628Z,101330.22
2022-08-25T19:18:10.726Z,101338.09
2022-08-25T19:23:32.826Z,101343.16
2022-08-25T19:28:55.434Z,101351.00
2022-08-25T19:34:28.352Z,101365.81
2022-08-25T19:39:54.146Z,101368.06
2022-08-25T19:45:15.968Z,101371.16
2022-08-25T19:50:38.529Z,101381.78
2022-08-25T19:56:02.270Z,101384.00
2022-08-25T20:01:25.694Z,101387.97
2022-08-25T20:06:48.270Z,101385.16
2022-08-25T20:12:10.903Z,101382.91
2022-08-25T20:17:33.695Z,101384.56
2022-08-25T20:23:16.251Z,101394.41
2022-08-25T20:28:42.026Z,101407.56
2022-08-25T20:34:04.508Z,101408.69
2022-08-25T20:39:26.298Z,101410.94
2022-08-25T20:44:48.020Z,101415.69
2022-08-25T20:50:10.420Z,101424.38
2022-08-25T20:55:32.342Z,101426.31
2022-08-25T21:01:03.683Z,101421.00
2022-08-25T21:06:25.485Z,101433.31
2022-08-25T21:11:48.321Z,101425.22
2022-08-25T21:17:13.352Z,101427.47
2022-08-25T21:22:36.121Z,101435.03
2022-08-25T21:27:59.890Z,101438.94
2022-08-25T21:33:21.674Z,101448.47
2022-08-25T21:38:48.122Z,101459.66
2022-08-25T21:44:11.178Z,101463.03
2022-08-25T21:49:37.352Z,101467.22
2022-08-25T21:55:02.267Z,101451.00
2022-08-25T22:00:24.871Z,101454.06
2022-08-25T22:05:46.559Z,101467.50
2022-08-25T22:11:10.989Z,101462.44
2022-08-25T22:16:35.098Z,101469.72
2022-08-25T22:21:57.776Z,101472.28
2022-08-25T22:27:23.472Z,101470.91
2022-08-25T22:32:45.671Z,101477.06
2022-08-25T22:38:08.381Z,101483.78
2022-08-25T22:43:34.586Z,101504.50
2022-08-25T22:48:57.010Z,101492.47
2022-08-25T22:54:18.725Z,101493.81
2022-08-25T22:59:40.731Z,101494.41
2022-08-25T23:05:02.862Z,101493.84
2022-08-25T23:10:25.696Z,101498.88
2022-08-25T23:15:47.502Z,101492.72
2022-08-25T23:21:28.024Z,101505.03
2022-08-25T23:26:49.809Z,101510.06
2022-08-25T23:32:14.496Z,101510.34
2022-08-25T23:37:36.978Z,101505.03
2022-08-25T23:42:58.663Z,101500.56
2022-08-25T23:48:21.408Z,101503.63
2022-08-25T23:53:43.171Z,101496.34
2022-08-25T23:59:06.229Z,101495.50
